sensor_id;sensor_type;location;lat;lon;timestamp;pressure;altitude;pressure_sealevel;temperature;humidity
56182;BME280;51963;46.052;14.544;2023-03-25T00:00:57;97678.78;;;12.92;80.96
56182;BME280;51963;46.052;14.544;2023-03-25T00:03:32;97670.00;;;12.91;80.84
56182;BME280;51963;46.052;14.544;2023-03-25T00:06:01;97675.72;;;13.14;80.35
56182;BME280;51963;46.052;14.544;2023-03-25T00:08:26;97676.16;;;13.11;80.11
56182;BME280;51963;46.052;14.544;2023-03-25T00:10:54;97680.03;;;12.89;81.29
56182;BME280;51963;46.052;14.544;2023-03-25T00:13:21;97677.81;;;12.86;82.18
56182;BME280;51963;46.052;14.544;2023-03-25T00:15:50;97668.47;;;12.84;81.77
56182;BME280;51963;46.052;14.544;2023-03-25T00:18:19;97666.72;;;12.96;82.04
56182;BME280;51963;46.052;14.544;2023-03-25T00:20:48;97660.13;;;12.80;82.89
56182;BME280;51963;46.052;14.544;2023-03-25T00:23:18;97648.34;;;12.95;81.98
56182;BME280;51963;46.052;14.544;2023-03-25T00:25:48;97647.97;;;12.72;82.91
56182;BME280;51963;46.052;14.544;2023-03-25T00:28:15;97643.59;;;12.59;83.06
56182;BME280;51963;46.052;14.544;2023-03-25T00:30:42;97634.13;;;12.45;83.90
56182;BME280;51963;46.052;14.544;2023-03-25T00:33:10;97635.03;;;12.57;83.99
56182;BME280;51963;46.052;14.544;2023-03-25T00:35:43;97639.13;;;12.60;83.38
56182;BME280;51963;46.052;14.544;2023-03-25T00:38:10;97642.22;;;12.57;83.47
56182;BME280;51963;46.052;14.544;2023-03-25T00:40:36;97643.44;;;12.54;83.85
56182;BME280;51963;46.052;14.544;2023-03-25T00:43:03;97643.81;;;12.58;83.79
56182;BME280;51963;46.052;14.544;2023-03-25T00:45:32;97640.75;;;12.61;83.76
56182;BME280;51963;46.052;14.544;2023-03-25T00:47:58;97643.97;;;12.63;84.03
56182;BME280;51963;46.052;14.544;2023-03-25T00:50:27;97631.31;;;12.65;83.20
56182;BME280;51963;46.052;14.544;2023-03-25T00:52:52;97630.25;;;12.47;84.48
56182;BME280;51963;46.052;14.544;2023-03-25T00:55:19;97629.22;;;12.49;84.62
56182;BME280;51963;46.052;14.544;2023-03-25T00:57:50;97624.00;;;12.60;84.07
56182;BME280;51963;46.052;14.544;2023-03-25T01:00:17;97621.72;;;12.45;84.27
56182;BME280;51963;46.052;14.544;2023-03-25T01:02:43;97625.81;;;12.41;84.96
56182;BME280;51963;46.052;14.544;2023-03-25T01:05:10;97624.69;;;12.30;85.66
56182;BME280;51963;46.052;14.544;2023-03-25T01:07:37;97597.06;;;12.20;85.40
56182;BME280;51963;46.052;14.544;2023-03-25T01:10:05;97615.63;;;12.64;83.57
56182;BME280;51963;46.052;14.544;2023-03-25T01:12:32;97610.69;;;12.67;83.11
56182;BME280;51963;46.052;14.544;2023-03-25T01:14:57;97617.16;;;12.53;84.53
56182;BME280;51963;46.052;14.544;2023-03-25T01:17:23;97624.13;;;12.47;84.64
56182;BME280;51963;46.052;14.544;2023-03-25T01:19:52;97613.09;;;12.50;84.37
56182;BME280;51963;46.052;14.544;2023-03-25T01:22:20;97605.41;;;12.42;84.54
56182;BME280;51963;46.052;14.544;2023-03-25T01:24:46;97608.81;;;12.49;84.50
56182;BME280;51963;46.052;14.544;2023-03-25T01:27:12;97605.41;;;12.42;85.04
56182;BME280;51963;46.052;14.544;2023-03-25T01:29:41;97602.88;;;12.54;84.23
56182;BME280;51963;46.052;14.544;2023-03-25T01:32:09;97602.00;;;12.60;83.54
56182;BME280;51963;46.052;14.544;2023-03-25T01:34:35;97600.38;;;12.59;84.34
56182;BME280;51963;46.052;14.544;2023-03-25T01:37:03;97612.75;;;12.65;83.52
56182;BME280;51963;46.052;14.544;2023-03-25T01:39:29;97613.66;;;12.77;83.94
56182;BME280;51963;46.052;14.544;2023-03-25T01:41:55;97618.44;;;12.87;83.08
56182;BME280;51963;46.052;14.544;2023-03-25T01:46:48;97616.75;;;12.93;82.00
56182;BME280;51963;46.052;14.544;2023-03-25T01:49:20;97612.09;;;12.88;82.62
56182;BME280;51963;46.052;14.544;2023-03-25T01:51:50;97590.34;;;12.98;81.36
56182;BME280;51963;46.052;14.544;2023-03-25T01:54:21;97593.59;;;13.00;81.62
56182;BME280;51963;46.052;14.544;2023-03-25T01:56:48;97584.75;;;12.88;82.16
56182;BME280;51963;46.052;14.544;2023-03-25T01:59:16;97599.06;;;12.68;83.71
56182;BME280;51963;46.052;14.544;2023-03-25T02:01:45;97604.97;;;12.89;81.97
56182;BME280;51963;46.052;14.544;2023-03-25T02:04:13;97594.41;;;12.82;82.74
56182;BME280;51963;46.052;14.544;2023-03-25T02:06:43;97571.06;;;12.54;83.60
56182;BME280;51963;46.052;14.544;2023-03-25T02:09:12;97587.88;;;12.85;82.75
56182;BME280;51963;46.052;14.544;2023-03-25T02:11:39;97576.94;;;12.93;82.26
56182;BME280;51963;46.052;14.544;2023-03-25T02:14:12;97585.06;;;12.80;82.92
56182;BME280;51963;46.052;14.544;2023-03-25T02:17:02;97579.16;;;12.96;81.94
56182;BME280;51963;46.052;14.544;2023-03-25T02:20:04;97577.69;;;12.63;83.62
56182;BME280;51963;46.052;14.544;2023-03-25T02:39:02;97581.38;;;12.81;83.68
56182;BME280;51963;46.052;14.544;2023-03-25T02:44:46;97589.25;;;12.69;84.85
56182;BME280;51963;46.052;14.544;2023-03-25T02:47:17;97583.59;;;12.65;85.73
56182;BME280;51963;46.052;14.544;2023-03-25T02:49:50;97585.84;;;12.80;84.13
56182;BME280;51963;46.052;14.544;2023-03-25T02:52:24;97584.91;;;12.74;85.22
56182;BME280;51963;46.052;14.544;2023-03-25T02:54:53;97576.81;;;12.69;85.92
56182;BME280;51963;46.052;14.544;2023-03-25T02:57:30;97592.44;;;12.77;85.85
56182;BME280;51963;46.052;14.544;2023-03-25T03:00:04;97590.50;;;12.85;85.44
56182;BME280;51963;46.052;14.544;2023-03-25T03:02:44;97595.00;;;12.66;86.79
56182;BME280;51963;46.052;14.544;2023-03-25T03:05:57;97589.63;;;12.54;87.49
56182;BME280;51963;46.052;14.544;2023-03-25T03:08:42;97596.69;;;12.60;87.67
56182;BME280;51963;46.052;14.544;2023-03-25T03:11:30;97592.63;;;12.57;88.53
56182;BME280;51963;46.052;14.544;2023-03-25T03:19:51;97595.38;;;12.69;89.15
56182;BME280;51963;46.052;14.544;2023-03-25T03:25:49;97588.16;;;12.58;90.05
56182;BME280;51963;46.052;14.544;2023-03-25T03:28:04;97586.06;;;12.41;91.29
56182;BME280;51963;46.052;14.544;2023-03-25T03:31:06;97582.22;;;12.37;91.64
56182;BME280;51963;46.052;14.544;2023-03-25T03:33:56;97590.22;;;12.56;90.58
56182;BME280;51963;46.052;14.544;2023-03-25T03:36:26;97580.78;;;12.60;90.79
56182;BME280;51963;46.052;14.544;2023-03-25T03:39:03;97584.81;;;12.62;90.21
56182;BME280;51963;46.052;14.544;2023-03-25T03:41:33;97568.56;;;12.59;90.56
56182;BME280;51963;46.052;14.544;2023-03-25T03:44:15;97581.38;;;12.62;91.32
56182;BME280;51963;46.052;14.544;2023-03-25T03:46:53;97582.53;;;12.47;91.31
56182;BME280;51963;46.052;14.544;2023-03-25T03:49:22;97582.22;;;12.37;92.71
56182;BME280;51963;46.052;14.544;2023-03-25T03:51:52;97591.44;;;12.53;92.28
56182;BME280;51963;46.052;14.544;2023-03-25T03:54:24;97581.72;;;12.47;92.25
56182;BME280;51963;46.052;14.544;2023-03-25T04:03:11;97594.44;;;12.38;94.14
56182;BME280;51963;46.052;14.544;2023-03-25T04:05:35;97598.28;;;12.42;93.84
56182;BME280;51963;46.052;14.544;2023-03-25T04:08:19;97599.91;;;12.43;93.52
56182;BME280;51963;46.052;14.544;2023-03-25T04:11:06;97604.19;;;12.44;94.15
56182;BME280;51963;46.052;14.544;2023-03-25T04:13:39;97614.22;;;12.61;93.63
56182;BME280;51963;46.052;14.544;2023-03-25T04:16:09;97609.94;;;12.60;93.18
56182;BME280;51963;46.052;14.544;2023-03-25T04:18:35;97604.66;;;12.60;92.60
56182;BME280;51963;46.052;14.544;2023-03-25T04:21:01;97590.97;;;12.38;92.81
56182;BME280;51963;46.052;14.544;2023-03-25T04:23:27;97606.25;;;12.42;93.13
56182;BME280;51963;46.052;14.544;2023-03-25T04:25:56;97617.16;;;12.53;92.88
56182;BME280;51963;46.052;14.544;2023-03-25T04:28:22;97612.72;;;12.46;92.60
56182;BME280;51963;46.052;14.544;2023-03-25T04:30:50;97616.88;;;12.80;91.22
56182;BME280;51963;46.052;14.544;2023-03-25T04:33:23;97612.47;;;12.92;89.33
56182;BME280;51963;46.052;14.544;2023-03-25T04:35:52;97620.47;;;12.67;90.42
56182;BME280;51963;46.052;14.544;2023-03-25T04:38:18;97624.56;;;12.88;90.53
56182;BME280;51963;46.052;14.544;2023-03-25T04:40:44;97619.41;;;12.74;90.08
56182;BME280;51963;46.052;14.544;2023-03-25T04:43:14;97620.16;;;12.56;91.33
56182;BME280;51963;46.052;14.544;2023-03-25T04:45:41;97616.59;;;12.69;91.22
56182;BME280;51963;46.052;14.544;2023-03-25T04:48:25;97628.97;;;12.75;90.48
56182;BME280;51963;46.052;14.544;2023-03-25T04:50:58;97624.69;;;12.30;93.78
56182;BME280;51963;46.052;14.544;2023-03-25T04:53:25;97615.97;;;11.98;96.35
56182;BME280;51963;46.052;14.544;2023-03-25T04:55:54;97624.97;;;11.90;99.88
56182;BME280;51963;46.052;14.544;2023-03-25T04:58:20;97632.06;;;11.64;100.00
56182;BME280;51963;46.052;14.544;2023-03-25T05:00:50;97611.91;;;11.24;100.00
56182;BME280;51963;46.052;14.544;2023-03-25T05:03:17;97637.00;;;11.08;100.00
56182;BME280;51963;46.052;14.544;2023-03-25T05:05:52;97646.63;;;10.82;100.00
56182;BME280;51963;46.052;14.544;2023-03-25T05:08:18;97647.47;;;10.69;100.00
56182;BME280;51963;46.052;14.544;2023-03-25T05:10:46;97643.00;;;10.56;100.00
56182;BME280;51963;46.052;14.544;2023-03-25T05:13:12;97648.28;;;10.50;100.00
56182;BME280;51963;46.052;14.544;2023-03-25T05:15:38;97648.28;;;10.70;100.00
56182;BME280;51963;46.052;14.544;2023-03-25T05:18:08;97651.94;;;10.76;100.00
56182;BME280;51963;46.052;14.544;2023-03-25T05:20:39;97651.94;;;10.76;100.00
56182;BME280;51963;46.052;14.544;2023-03-25T05:23:10;97654.38;;;10.77;100.00
56182;BME280;51963;46.052;14.544;2023-03-25T05:25:50;97656.38;;;10.95;100.00
56182;BME280;51963;46.052;14.544;2023-03-25T05:28:16;97660.06;;;10.81;100.00
56182;BME280;51963;46.052;14.544;2023-03-25T05:30:44;97658.25;;;10.75;100.00
56182;BME280;51963;46.052;14.544;2023-03-25T05:33:15;97660.88;;;10.68;100.00
56182;BME280;51963;46.052;14.544;2023-03-25T05:35:41;97671.66;;;10.80;100.00
56182;BME280;51963;46.052;14.544;2023-03-25T05:38:08;97671.44;;;10.81;100.00
56182;BME280;51963;46.052;14.544;2023-03-25T05:40:37;97676.75;;;10.75;100.00
56182;BME280;51963;46.052;14.544;2023-03-25T05:43:03;97672.69;;;10.65;100.00
56182;BME280;51963;46.052;14.544;2023-03-25T05:45:32;97677.97;;;10.65;100.00
56182;BME280;51963;46.052;14.544;2023-03-25T05:48:00;97681.66;;;10.64;100.00
56182;BME280;51963;46.052;14.544;2023-03-25T05:50:26;97678.78;;;10.59;100.00
56182;BME280;51963;46.052;14.544;2023-03-25T05:53:04;97672.88;;;10.57;100.00
56182;BME280;51963;46.052;14.544;2023-03-25T05:55:30;97676.97;;;10.60;100.00
56182;BME280;51963;46.052;14.544;2023-03-25T05:57:56;97679.59;;;10.60;100.00
56182;BME280;51963;46.052;14.544;2023-03-25T06:00:23;97692.22;;;10.57;100.00
56182;BME280;51963;46.052;14.544;2023-03-25T06:02:49;97681.03;;;10.62;100.00
56182;BME280;51963;46.052;14.544;2023-03-25T06:05:18;97690.19;;;10.60;100.00
56182;BME280;51963;46.052;14.544;2023-03-25T06:07:50;97684.06;;;10.59;100.00
56182;BME280;51963;46.052;14.544;2023-03-25T06:10:17;97700.97;;;10.71;100.00
56182;BME280;51963;46.052;14.544;2023-03-25T06:12:44;97695.88;;;10.63;100.00
56182;BME280;51963;46.052;14.544;2023-03-25T06:15:13;97703.19;;;10.61;100.00
56182;BME280;51963;46.052;14.544;2023-03-25T06:17:43;97704.81;;;10.55;100.00
56182;BME280;51963;46.052;14.544;2023-03-25T06:20:12;97714.34;;;10.50;100.00
56182;BME280;51963;46.052;14.544;2023-03-25T06:22:39;97698.69;;;10.41;100.00
56182;BME280;51963;46.052;14.544;2023-03-25T06:25:08;97711.72;;;10.77;100.00
56182;BME280;51963;46.052;14.544;2023-03-25T06:27:35;97715.78;;;10.79;100.00
56182;BME280;51963;46.052;14.544;2023-03-25T06:30:09;97722.72;;;10.60;100.00
56182;BME280;51963;46.052;14.544;2023-03-25T06:32:40;97731.25;;;10.55;100.00
56182;BME280;51963;46.052;14.544;2023-03-25T06:35:10;97737.94;;;10.45;100.00
56182;BME280;51963;46.052;14.544;2023-03-25T06:37:37;97742.19;;;10.39;100.00
56182;BME280;51963;46.052;14.544;2023-03-25T06:40:08;97736.56;;;10.62;100.00
56182;BME280;51963;46.052;14.544;2023-03-25T06:42:34;97735.13;;;10.60;100.00
56182;BME280;51963;46.052;14.544;2023-03-25T06:45:26;97754.63;;;10.52;100.00
56182;BME280;51963;46.052;14.544;2023-03-25T06:48:24;97746.28;;;10.55;100.00
56182;BME280;51963;46.052;14.544;2023-03-25T06:50:54;97751.59;;;10.62;100.00
56182;BME280;51963;46.052;14.544;2023-03-25T06:53:20;97734.09;;;10.61;100.00
56182;BME280;51963;46.052;14.544;2023-03-25T06:55:51;97755.88;;;10.83;100.00
56182;BME280;51963;46.052;14.544;2023-03-25T06:58:19;97764.78;;;10.55;100.00
56182;BME280;51963;46.052;14.544;2023-03-25T07:00:55;97772.28;;;10.38;100.00
56182;BME280;51963;46.052;14.544;2023-03-25T07:03:20;97768.81;;;10.31;100.00
56182;BME280;51963;46.052;14.544;2023-03-25T07:05:49;97770.22;;;10.33;100.00
56182;BME280;51963;46.052;14.544;2023-03-25T07:08:15;97767.28;;;10.01;100.00
56182;BME280;51963;46.052;14.544;2023-03-25T07:10:43;97746.75;;;9.90;100.00
56182;BME280;51963;46.052;14.544;2023-03-25T07:13:09;97762.22;;;10.06;100.00
56182;BME280;51963;46.052;14.544;2023-03-25T07:15:37;97770.47;;;9.76;100.00
56182;BME280;51963;46.052;14.544;2023-03-25T07:18:03;97786.78;;;10.00;100.00
56182;BME280;51963;46.052;14.544;2023-03-25T07:20:37;97790.72;;;10.18;100.00
56182;BME280;51963;46.052;14.544;2023-03-25T07:23:03;97794.09;;;9.98;100.00
56182;BME280;51963;46.052;14.544;2023-03-25T07:25:28;97789.94;;;9.68;100.00
56182;BME280;51963;46.052;14.544;2023-03-25T07:27:54;97794.44;;;9.81;100.00
56182;BME280;51963;46.052;14.544;2023-03-25T07:30:20;97785.56;;;9.96;100.00
56182;BME280;51963;46.052;14.544;2023-03-25T07:32:46;97772.09;;;9.77;100.00
56182;BME280;51963;46.052;14.544;2023-03-25T07:35:12;97796.06;;;9.76;100.00
56182;BME280;51963;46.052;14.544;2023-03-25T07:37:37;97803.31;;;9.67;100.00
56182;BME280;51963;46.052;14.544;2023-03-25T07:40:04;97821.56;;;9.62;100.00
56182;BME280;51963;46.052;14.544;2023-03-25T07:42:30;97832.75;;;9.64;100.00
56182;BME280;51963;46.052;14.544;2023-03-25T07:45:11;97824.88;;;9.71;100.00
56182;BME280;51963;46.052;14.544;2023-03-25T07:47:39;97822.47;;;9.82;100.00
56182;BME280;51963;46.052;14.544;2023-03-25T07:50:05;97825.72;;;9.84;100.00
56182;BME280;51963;46.052;14.544;2023-03-25T07:52:31;97829.38;;;9.83;100.00
56182;BME280;51963;46.052;14.544;2023-03-25T07:54:57;97832.03;;;9.83;100.00
56182;BME280;51963;46.052;14.544;2023-03-25T07:57:25;97833.81;;;9.69;100.00
56182;BME280;51963;46.052;14.544;2023-03-25T07:59:50;97837.59;;;9.60;100.00
56182;BME280;51963;46.052;14.544;2023-03-25T08:02:16;97835.81;;;9.67;100.00
56182;BME280;51963;46.052;14.544;2023-03-25T08:04:45;97838.00;;;9.64;100.00
56182;BME280;51963;46.052;14.544;2023-03-25T08:07:11;97849.25;;;9.73;100.00
56182;BME280;51963;46.052;14.544;2023-03-25T08:09:37;97858.97;;;9.72;100.00
56182;BME280;51963;46.052;14.544;2023-03-25T08:12:02;97850.97;;;9.59;100.00
56182;BME280;51963;46.052;14.544;2023-03-25T08:14:28;97854.38;;;9.46;100.00
56182;BME280;51963;46.052;14.544;2023-03-25T08:16:54;97851.66;;;9.39;100.00
56182;BME280;51963;46.052;14.544;2023-03-25T08:19:20;97860.25;;;9.19;100.00
56182;BME280;51963;46.052;14.544;2023-03-25T08:21:45;97851.72;;;9.17;100.00
56182;BME280;51963;46.052;14.544;2023-03-25T08:24:11;97837.81;;;9.02;100.00
56182;BME280;51963;46.052;14.544;2023-03-25T08:26:38;97846.47;;;8.95;100.00
56182;BME280;51963;46.052;14.544;2023-03-25T08:29:06;97818.19;;;8.83;100.00
56182;BME280;51963;46.052;14.544;2023-03-25T08:31:40;97803.81;;;8.63;100.00
56182;BME280;51963;46.052;14.544;2023-03-25T08:34:06;97820.63;;;8.84;100.00
56182;BME280;51963;46.052;14.544;2023-03-25T08:36:32;97832.31;;;8.75;100.00
56182;BME280;51963;46.052;14.544;2023-03-25T08:38:58;97848.00;;;8.61;100.00
56182;BME280;51963;46.052;14.544;2023-03-25T08:41:24;97854.31;;;8.45;100.00
56182;BME280;51963;46.052;14.544;2023-03-25T08:43:49;97869.59;;;8.72;100.00
56182;BME280;51963;46.052;14.544;2023-03-25T08:46:15;97874.53;;;9.03;100.00
56182;BME280;51963;46.052;14.544;2023-03-25T08:48:41;97855.50;;;9.08;100.00
56182;BME280;51963;46.052;14.544;2023-03-25T08:51:10;97868.88;;;9.35;100.00
56182;BME280;51963;46.052;14.544;2023-03-25T08:53:42;97870.03;;;9.25;100.00
56182;BME280;51963;46.052;14.544;2023-03-25T08:56:13;97852.09;;;9.14;100.00
56182;BME280;51963;46.052;14.544;2023-03-25T08:58:39;97885.59;;;9.42;100.00
56182;BME280;51963;46.052;14.544;2023-03-25T09:01:05;97861.06;;;9.48;100.00
56182;BME280;51963;46.052;14.544;2023-03-25T09:03:32;97883.19;;;9.76;100.00
56182;BME280;51963;46.052;14.544;2023-03-25T09:06:04;97840.34;;;9.45;100.00
56182;BME280;51963;46.052;14.544;2023-03-25T09:08:30;97871.16;;;9.73;100.00
56182;BME280;51963;46.052;14.544;2023-03-25T09:11:00;97879.94;;;9.80;100.00
56182;BME280;51963;46.052;14.544;2023-03-25T09:13:26;97876.75;;;9.92;100.00
56182;BME280;51963;46.052;14.544;2023-03-25T09:15:59;97885.50;;;9.92;100.00
56182;BME280;51963;46.052;14.544;2023-03-25T09:18:24;97889.94;;;9.92;100.00
56182;BME280;51963;46.052;14.544;2023-03-25T09:20:50;97900.72;;;9.90;100.00
56182;BME280;51963;46.052;14.544;2023-03-25T09:23:16;97910.59;;;9.81;100.00
56182;BME280;51963;46.052;14.544;2023-03-25T09:25:43;97924.56;;;10.04;100.00
56182;BME280;51963;46.052;14.544;2023-03-25T09:28:10;97916.72;;;9.82;100.00
56182;BME280;51963;46.052;14.544;2023-03-25T09:30:36;97924.03;;;9.80;100.00
56182;BME280;51963;46.052;14.544;2023-03-25T09:33:02;97897.63;;;9.87;100.00
56182;BME280;51963;46.052;14.544;2023-03-25T09:35:30;97918.03;;;10.00;100.00
56182;BME280;51963;46.052;14.544;2023-03-25T09:38:00;97902.06;;;9.79;100.00
56182;BME280;51963;46.052;14.544;2023-03-25T09:40:29;97917.91;;;9.79;100.00
56182;BME280;51963;46.052;14.544;2023-03-25T09:43:10;97911.94;;;9.99;100.00
56182;BME280;51963;46.052;14.544;2023-03-25T09:45:45;97906.94;;;9.76;100.00
56182;BME280;51963;46.052;14.544;2023-03-25T09:48:39;97928.06;;;9.25;100.00
56182;BME280;51963;46.052;14.544;2023-03-25T09:51:29;97943.63;;;9.42;100.00
56182;BME280;51963;46.052;14.544;2023-03-25T09:54:27;97932.22;;;9.35;100.00
56182;BME280;51963;46.052;14.544;2023-03-25T09:56:56;97926.94;;;9.35;100.00
56182;BME280;51963;46.052;14.544;2023-03-25T09:59:39;97919.66;;;9.15;100.00
56182;BME280;51963;46.052;14.544;2023-03-25T10:04:48;97999.41;;;9.17;100.00
56182;BME280;51963;46.052;14.544;2023-03-25T10:07:42;97982.72;;;9.10;100.00
56182;BME280;51963;46.052;14.544;2023-03-25T10:10:34;97980.25;;;9.52;100.00
56182;BME280;51963;46.052;14.544;2023-03-25T10:16:27;98007.03;;;9.05;100.00
56182;BME280;51963;46.052;14.544;2023-03-25T10:19:04;97976.78;;;8.86;100.00
56182;BME280;51963;46.052;14.544;2023-03-25T10:21:59;97964.56;;;9.00;100.00
56182;BME280;51963;46.052;14.544;2023-03-25T10:32:01;98071.13;;;8.46;100.00
56182;BME280;51963;46.052;14.544;2023-03-25T10:34:44;98086.03;;;8.39;100.00
56182;BME280;51963;46.052;14.544;2023-03-25T10:37:18;98090.44;;;8.61;100.00
56182;BME280;51963;46.052;14.544;2023-03-25T10:39:49;98069.34;;;8.61;100.00
56182;BME280;51963;46.052;14.544;2023-03-25T10:42:30;98065.88;;;8.46;100.00
56182;BME280;51963;46.052;14.544;2023-03-25T10:44:59;98059.59;;;8.47;100.00
56182;BME280;51963;46.052;14.544;2023-03-25T10:47:32;98066.41;;;8.26;100.00
56182;BME280;51963;46.052;14.544;2023-03-25T10:50:03;98055.25;;;8.39;100.00
56182;BME280;51963;46.052;14.544;2023-03-25T10:52:29;98042.25;;;8.22;100.00
56182;BME280;51963;46.052;14.544;2023-03-25T10:54:55;98025.34;;;8.02;100.00
56182;BME280;51963;46.052;14.544;2023-03-25T10:57:26;97995.06;;;7.83;100.00
56182;BME280;51963;46.052;14.544;2023-03-25T11:00:14;98003.25;;;7.88;100.00
56182;BME280;51963;46.052;14.544;2023-03-25T11:02:47;98000.69;;;7.80;100.00
56182;BME280;51963;46.052;14.544;2023-03-25T11:05:19;97989.69;;;7.76;100.00
56182;BME280;51963;46.052;14.544;2023-03-25T11:07:50;97984.25;;;7.77;100.00
56182;BME280;51963;46.052;14.544;2023-03-25T11:10:25;97985.16;;;7.70;100.00
56182;BME280;51963;46.052;14.544;2023-03-25T11:12:52;97958.97;;;7.53;100.00
56182;BME280;51963;46.052;14.544;2023-03-25T11:15:38;97959.13;;;7.37;100.00
56182;BME280;51963;46.052;14.544;2023-03-25T11:21:02;97947.13;;;6.96;100.00
56182;BME280;51963;46.052;14.544;2023-03-25T11:26:03;97943.31;;;6.98;100.00
56182;BME280;51963;46.052;14.544;2023-03-25T11:28:41;97942.84;;;6.95;100.00
56182;BME280;51963;46.052;14.544;2023-03-25T11:31:15;97942.19;;;7.16;100.00
56182;BME280;51963;46.052;14.544;2023-03-25T11:33:44;97935.22;;;7.23;100.00
56182;BME280;51963;46.052;14.544;2023-03-25T11:36:19;97942.13;;;7.24;100.00
56182;BME280;51963;46.052;14.544;2023-03-25T11:38:52;97936.34;;;7.29;100.00
56182;BME280;51963;46.052;14.544;2023-03-25T11:41:24;97928.19;;;7.39;100.00
56182;BME280;51963;46.052;14.544;2023-03-25T11:43:52;97929.91;;;7.31;100.00
56182;BME280;51963;46.052;14.544;2023-03-25T11:46:20;97938.63;;;7.32;100.00
56182;BME280;51963;46.052;14.544;2023-03-25T11:48:47;97920.03;;;7.33;100.00
56182;BME280;51963;46.052;14.544;2023-03-25T11:51:20;97919.94;;;7.42;100.00
56182;BME280;51963;46.052;14.544;2023-03-25T11:54:02;97921.22;;;7.31;100.00
56182;BME280;51963;46.052;14.544;2023-03-25T11:56:38;97929.63;;;7.26;100.00
56182;BME280;51963;46.052;14.544;2023-03-25T11:59:17;97942.75;;;7.11;100.00
56182;BME280;51963;46.052;14.544;2023-03-25T12:01:47;97915.97;;;7.31;100.00
56182;BME280;51963;46.052;14.544;2023-03-25T12:04:16;97869.69;;;7.22;100.00
56182;BME280;51963;46.052;14.544;2023-03-25T12:07:06;97897.13;;;7.04;100.00
56182;BME280;51963;46.052;14.544;2023-03-25T12:09:33;97969.44;;;7.00;100.00
56182;BME280;51963;46.052;14.544;2023-03-25T12:22:59;97933.72;;;7.05;100.00
56182;BME280;51963;46.052;14.544;2023-03-25T12:31:19;97926.13;;;7.34;100.00
56182;BME280;51963;46.052;14.544;2023-03-25T12:39:07;97928.09;;;7.70;100.00
56182;BME280;51963;46.052;14.544;2023-03-25T12:41:52;97929.88;;;7.70;100.00
56182;BME280;51963;46.052;14.544;2023-03-25T12:50:20;97928.69;;;8.47;100.00
56182;BME280;51963;46.052;14.544;2023-03-25T12:58:40;97923.91;;;11.73;100.00
56182;BME280;51963;46.052;14.544;2023-03-25T13:07:46;97866.53;;;20.68;57.70
56182;BME280;51963;46.052;14.544;2023-03-25T13:10:23;97891.97;;;20.50;52.35
56182;BME280;51963;46.052;14.544;2023-03-25T13:12:55;97898.13;;;19.06;57.66
56182;BME280;51963;46.052;14.544;2023-03-25T13:18:02;97887.31;;;14.13;75.11
56182;BME280;51963;46.052;14.544;2023-03-25T13:20:38;97884.06;;;13.92;77.51
56182;BME280;51963;46.052;14.544;2023-03-25T13:23:12;97887.31;;;13.94;78.59
56182;BME280;51963;46.052;14.544;2023-03-25T13:26:28;97877.22;;;14.03;76.80
56182;BME280;51963;46.052;14.544;2023-03-25T13:28:50;97890.28;;;12.85;78.99
56182;BME280;51963;46.052;14.544;2023-03-25T13:31:25;97883.06;;;13.24;81.22
56182;BME280;51963;46.052;14.544;2023-03-25T13:36:33;97893.50;;;11.96;85.98
56182;BME280;51963;46.052;14.544;2023-03-25T13:39:22;97893.44;;;12.23;89.40
56182;BME280;51963;46.052;14.544;2023-03-25T13:42:02;97890.75;;;11.50;90.54
56182;BME280;51963;46.052;14.544;2023-03-25T13:44:36;97889.13;;;11.22;94.45
56182;BME280;51963;46.052;14.544;2023-03-25T13:47:20;97894.00;;;11.12;90.20
56182;BME280;51963;46.052;14.544;2023-03-25T13:49:56;97877.13;;;10.99;92.84
56182;BME280;51963;46.052;14.544;2023-03-25T13:52:33;97892.00;;;14.48;76.32
56182;BME280;51963;46.052;14.544;2023-03-25T13:55:11;97888.44;;;18.50;54.22
56182;BME280;51963;46.052;14.544;2023-03-25T13:58:11;97883.06;;;19.75;51.86
56182;BME280;51963;46.052;14.544;2023-03-25T14:09:20;97852.97;;;22.98;40.30
56182;BME280;51963;46.052;14.544;2023-03-25T14:14:37;97840.56;;;23.85;37.82
56182;BME280;51963;46.052;14.544;2023-03-25T14:17:06;97853.41;;;23.45;37.52
56182;BME280;51963;46.052;14.544;2023-03-25T14:19:34;97843.75;;;24.55;36.11
56182;BME280;51963;46.052;14.544;2023-03-25T14:22:29;97837.50;;;24.79;34.98
56182;BME280;51963;46.052;14.544;2023-03-25T14:24:58;97834.75;;;24.98;35.61
56182;BME280;51963;46.052;14.544;2023-03-25T14:27:31;97833.28;;;25.53;34.76
56182;BME280;51963;46.052;14.544;2023-03-25T14:30:18;97830.63;;;24.29;34.74
56182;BME280;51963;46.052;14.544;2023-03-25T14:32:47;97825.63;;;22.46;37.43
56182;BME280;51963;46.052;14.544;2023-03-25T14:38:48;97805.53;;;19.20;46.44
56182;BME280;51963;46.052;14.544;2023-03-25T14:41:07;97802.00;;;19.63;45.05
56182;BME280;51963;46.052;14.544;2023-03-25T14:43:38;97795.66;;;21.00;41.65
56182;BME280;51963;46.052;14.544;2023-03-25T14:46:15;97795.25;;;17.13;51.02
56182;BME280;51963;46.052;14.544;2023-03-25T14:54:00;97813.16;;;14.23;60.84
56182;BME280;51963;46.052;14.544;2023-03-25T14:56:40;97795.78;;;13.09;66.44
56182;BME280;51963;46.052;14.544;2023-03-25T14:59:15;97819.06;;;12.82;71.43
56182;BME280;51963;46.052;14.544;2023-03-25T15:01:43;97831.50;;;12.56;76.65
56182;BME280;51963;46.052;14.544;2023-03-25T15:04:29;97819.34;;;12.41;74.33
56182;BME280;51963;46.052;14.544;2023-03-25T15:07:00;97808.31;;;12.44;73.08
56182;BME280;51963;46.052;14.544;2023-03-25T15:09:28;97810.19;;;12.37;73.79
56182;BME280;51963;46.052;14.544;2023-03-25T15:12:04;97820.78;;;12.37;75.83